sensor_id;sensor_type;location;lat;lon;timestamp;P1;durP1;ratioP1;P2;durP2;ratioP2
40541;SDS011;49288;52.194;5.676;2024-03-25T00:04:37;18.85;;;4.03;;
40541;SDS011;49288;52.194;5.676;2024-03-25T00:09:39;21.15;;;4.50;;
40541;SDS011;49288;52.194;5.676;2024-03-25T00:14:41;13.45;;;4.22;;
40541;SDS011;49288;52.194;5.676;2024-03-25T00:19:43;11.63;;;2.90;;
40541;SDS011;49288;52.194;5.676;2024-03-25T00:25:11;13.45;;;3.08;;
40541;SDS011;49288;52.194;5.676;2024-03-25T00:30:14;10.82;;;2.95;;
40541;SDS011;49288;52.194;5.676;2024-03-25T00:35:15;14.65;;;3.28;;
40541;SDS011;49288;52.194;5.676;2024-03-25T00:40:19;8.02;;;2.83;;
40541;SDS011;49288;52.194;5.676;2024-03-25T00:45:21;15.75;;;3.08;;
40541;SDS011;49288;52.194;5.676;2024-03-25T00:50:23;8.35;;;3.13;;
40541;SDS011;49288;52.194;5.676;2024-03-25T00:55:27;22.08;;;4.55;;
40541;SDS011;49288;52.194;5.676;2024-03-25T01:00:29;18.15;;;3.60;;
40541;SDS011;49288;52.194;5.676;2024-03-25T01:05:32;13.63;;;2.83;;
40541;SDS011;49288;52.194;5.676;2024-03-25T01:10:34;9.82;;;2.75;;
40541;SDS011;49288;52.194;5.676;2024-03-25T01:15:36;10.48;;;2.78;;
40541;SDS011;49288;52.194;5.676;2024-03-25T01:20:38;6.75;;;2.20;;
40541;SDS011;49288;52.194;5.676;2024-03-25T01:25:42;11.77;;;2.70;;
40541;SDS011;49288;52.194;5.676;2024-03-25T01:30:44;14.23;;;3.20;;
40541;SDS011;49288;52.194;5.676;2024-03-25T01:35:46;17.20;;;3.13;;
40541;SDS011;49288;52.194;5.676;2024-03-25T01:40:48;10.80;;;2.78;;
40541;SDS011;49288;52.194;5.676;2024-03-25T01:45:51;10.93;;;2.78;;
40541;SDS011;49288;52.194;5.676;2024-03-25T01:50:56;9.95;;;2.78;;
40541;SDS011;49288;52.194;5.676;2024-03-25T01:55:58;21.00;;;3.13;;
40541;SDS011;49288;52.194;5.676;2024-03-25T02:01:00;24.23;;;4.63;;
40541;SDS011;49288;52.194;5.676;2024-03-25T02:06:04;13.43;;;3.30;;
40541;SDS011;49288;52.194;5.676;2024-03-25T02:11:10;22.05;;;3.97;;
40541;SDS011;49288;52.194;5.676;2024-03-25T02:16:12;15.55;;;4.38;;
40541;SDS011;49288;52.194;5.676;2024-03-25T02:21:15;22.80;;;3.72;;
40541;SDS011;49288;52.194;5.676;2024-03-25T02:26:16;18.90;;;3.85;;
40541;SDS011;49288;52.194;5.676;2024-03-25T02:31:18;18.05;;;3.67;;
40541;SDS011;49288;52.194;5.676;2024-03-25T02:36:20;17.08;;;3.83;;
40541;SDS011;49288;52.194;5.676;2024-03-25T02:41:22;17.63;;;3.95;;
40541;SDS011;49288;52.194;5.676;2024-03-25T02:46:26;23.13;;;4.47;;
40541;SDS011;49288;52.194;5.676;2024-03-25T02:51:29;26.63;;;4.75;;
40541;SDS011;49288;52.194;5.676;2024-03-25T02:56:30;16.15;;;3.22;;
40541;SDS011;49288;52.194;5.676;2024-03-25T03:01:32;27.02;;;3.95;;
40541;SDS011;49288;52.194;5.676;2024-03-25T03:06:34;20.35;;;4.03;;
40541;SDS011;49288;52.194;5.676;2024-03-25T03:11:36;26.35;;;4.65;;
40541;SDS011;49288;52.194;5.676;2024-03-25T03:16:38;19.25;;;4.30;;
40541;SDS011;49288;52.194;5.676;2024-03-25T03:21:40;28.58;;;4.05;;
40541;SDS011;49288;52.194;5.676;2024-03-25T03:27:00;25.50;;;4.18;;
40541;SDS011;49288;52.194;5.676;2024-03-25T03:32:02;19.30;;;3.33;;
40541;SDS011;49288;52.194;5.676;2024-03-25T03:37:04;22.63;;;4.25;;
40541;SDS011;49288;52.194;5.676;2024-03-25T03:42:06;20.27;;;3.88;;
40541;SDS011;49288;52.194;5.676;2024-03-25T03:47:08;21.48;;;3.92;;
40541;SDS011;49288;52.194;5.676;2024-03-25T03:52:09;19.15;;;3.10;;
40541;SDS011;49288;52.194;5.676;2024-03-25T03:57:30;16.38;;;2.97;;
40541;SDS011;49288;52.194;5.676;2024-03-25T04:02:33;16.77;;;3.42;;
40541;SDS011;49288;52.194;5.676;2024-03-25T04:07:35;22.15;;;4.05;;
40541;SDS011;49288;52.194;5.676;2024-03-25T04:12:41;12.05;;;3.72;;
40541;SDS011;49288;52.194;5.676;2024-03-25T04:17:45;20.23;;;4.03;;
40541;SDS011;49288;52.194;5.676;2024-03-25T04:22:48;8.52;;;2.95;;
40541;SDS011;49288;52.194;5.676;2024-03-25T04:27:50;22.08;;;3.83;;
40541;SDS011;49288;52.194;5.676;2024-03-25T04:32:54;17.92;;;3.85;;
40541;SDS011;49288;52.194;5.676;2024-03-25T04:37:56;16.40;;;3.27;;
40541;SDS011;49288;52.194;5.676;2024-03-25T04:42:58;21.65;;;3.75;;
40541;SDS011;49288;52.194;5.676;2024-03-25T04:48:00;18.50;;;4.15;;
40541;SDS011;49288;52.194;5.676;2024-03-25T04:53:03;15.30;;;3.10;;
40541;SDS011;49288;52.194;5.676;2024-03-25T04:58:06;11.02;;;2.75;;
40541;SDS011;49288;52.194;5.676;2024-03-25T05:03:08;11.30;;;2.90;;
40541;SDS011;49288;52.194;5.676;2024-03-25T05:08:09;10.63;;;2.72;;
40541;SDS011;49288;52.194;5.676;2024-03-25T05:13:14;12.43;;;2.55;;
40541;SDS011;49288;52.194;5.676;2024-03-25T05:18:17;5.93;;;2.35;;
40541;SDS011;49288;52.194;5.676;2024-03-25T05:23:20;7.95;;;2.40;;
40541;SDS011;49288;52.194;5.676;2024-03-25T05:28:22;7.32;;;2.90;;
40541;SDS011;49288;52.194;5.676;2024-03-25T05:33:42;12.48;;;3.13;;
40541;SDS011;49288;52.194;5.676;2024-03-25T05:38:44;9.60;;;2.95;;
40541;SDS011;49288;52.194;5.676;2024-03-25T05:43:46;9.38;;;2.85;;
40541;SDS011;49288;52.194;5.676;2024-03-25T05:48:50;7.57;;;2.73;;
40541;SDS011;49288;52.194;5.676;2024-03-25T05:53:52;15.57;;;3.90;;
40541;SDS011;49288;52.194;5.676;2024-03-25T05:58:54;22.38;;;4.85;;
40541;SDS011;49288;52.194;5.676;2024-03-25T06:03:58;19.80;;;4.57;;
40541;SDS011;49288;52.194;5.676;2024-03-25T06:09:00;20.60;;;5.55;;
40541;SDS011;49288;52.194;5.676;2024-03-25T06:14:02;28.25;;;8.48;;
40541;SDS011;49288;52.194;5.676;2024-03-25T06:19:05;28.88;;;8.63;;
40541;SDS011;49288;52.194;5.676;2024-03-25T06:24:07;38.33;;;7.53;;
40541;SDS011;49288;52.194;5.676;2024-03-25T06:29:09;22.90;;;7.03;;
40541;SDS011;49288;52.194;5.676;2024-03-25T06:34:13;41.50;;;7.38;;
40541;SDS011;49288;52.194;5.676;2024-03-25T06:39:22;41.78;;;9.60;;
40541;SDS011;49288;52.194;5.676;2024-03-25T06:44:24;36.03;;;9.20;;
40541;SDS011;49288;52.194;5.676;2024-03-25T06:49:27;61.33;;;12.52;;
40541;SDS011;49288;52.194;5.676;2024-03-25T06:54:29;51.10;;;11.18;;
40541;SDS011;49288;52.194;5.676;2024-03-25T06:59:33;45.77;;;11.97;;
40541;SDS011;49288;52.194;5.676;2024-03-25T07:04:40;57.85;;;13.00;;
40541;SDS011;49288;52.194;5.676;2024-03-25T07:09:42;60.92;;;13.02;;
40541;SDS011;49288;52.194;5.676;2024-03-25T07:14:45;68.10;;;13.15;;
40541;SDS011;49288;52.194;5.676;2024-03-25T07:19:47;57.38;;;11.80;;
40541;SDS011;49288;52.194;5.676;2024-03-25T07:29:57;60.58;;;13.68;;
40541;SDS011;49288;52.194;5.676;2024-03-25T07:34:59;80.15;;;17.20;;
40541;SDS011;49288;52.194;5.676;2024-03-25T07:40:01;90.97;;;19.00;;
40541;SDS011;49288;52.194;5.676;2024-03-25T07:45:04;104.40;;;22.98;;
40541;SDS011;49288;52.194;5.676;2024-03-25T07:50:09;85.75;;;22.88;;
40541;SDS011;49288;52.194;5.676;2024-03-25T07:55:11;114.68;;;27.52;;
40541;SDS011;49288;52.194;5.676;2024-03-25T08:00:14;101.82;;;28.77;;
40541;SDS011;49288;52.194;5.676;2024-03-25T08:05:17;109.97;;;28.60;;
40541;SDS011;49288;52.194;5.676;2024-03-25T08:10:20;103.03;;;25.33;;
40541;SDS011;49288;52.194;5.676;2024-03-25T08:15:22;81.65;;;17.17;;
40541;SDS011;49288;52.194;5.676;2024-03-25T08:20:24;92.55;;;21.17;;
40541;SDS011;49288;52.194;5.676;2024-03-25T08:25:27;93.20;;;24.42;;
40541;SDS011;49288;52.194;5.676;2024-03-25T08:30:31;74.05;;;21.92;;
40541;SDS011;49288;52.194;5.676;2024-03-25T08:35:33;48.60;;;12.15;;
40541;SDS011;49288;52.194;5.676;2024-03-25T08:40:36;35.03;;;10.57;;
40541;SDS011;49288;52.194;5.676;2024-03-25T08:45:38;27.45;;;8.25;;
40541;SDS011;49288;52.194;5.676;2024-03-25T08:50:40;55.63;;;10.75;;
40541;SDS011;49288;52.194;5.676;2024-03-25T08:55:45;30.15;;;6.25;;
40541;SDS011;49288;52.194;5.676;2024-03-25T09:00:48;27.77;;;5.80;;
40541;SDS011;49288;52.194;5.676;2024-03-25T09:05:50;31.73;;;5.65;;
40541;SDS011;49288;52.194;5.676;2024-03-25T09:10:53;19.13;;;4.90;;
40541;SDS011;49288;52.194;5.676;2024-03-25T09:16:03;16.65;;;4.07;;
40541;SDS011;49288;52.194;5.676;2024-03-25T09:21:06;28.67;;;5.20;;
40541;SDS011;49288;52.194;5.676;2024-03-25T09:26:08;14.85;;;4.30;;
40541;SDS011;49288;52.194;5.676;2024-03-25T09:31:11;23.05;;;5.97;;
40541;SDS011;49288;52.194;5.676;2024-03-25T09:36:14;24.70;;;4.75;;
40541;SDS011;49288;52.194;5.676;2024-03-25T09:41:16;19.88;;;4.18;;
40541;SDS011;49288;52.194;5.676;2024-03-25T09:46:18;17.52;;;5.07;;
40541;SDS011;49288;52.194;5.676;2024-03-25T09:51:20;13.98;;;3.72;;
40541;SDS011;49288;52.194;5.676;2024-03-25T09:56:22;15.43;;;4.25;;
40541;SDS011;49288;52.194;5.676;2024-03-25T10:01:24;22.48;;;4.75;;
40541;SDS011;49288;52.194;5.676;2024-03-25T10:06:26;25.98;;;4.78;;
40541;SDS011;49288;52.194;5.676;2024-03-25T10:11:28;18.42;;;4.68;;
40541;SDS011;49288;52.194;5.676;2024-03-25T10:16:31;15.50;;;4.90;;
40541;SDS011;49288;52.194;5.676;2024-03-25T10:21:34;13.80;;;4.03;;
40541;SDS011;49288;52.194;5.676;2024-03-25T10:26:37;19.38;;;5.45;;
40541;SDS011;49288;52.194;5.676;2024-03-25T10:31:40;15.68;;;4.10;;
40541;SDS011;49288;52.194;5.676;2024-03-25T10:36:42;17.02;;;5.05;;
40541;SDS011;49288;52.194;5.676;2024-03-25T10:41:44;19.73;;;5.57;;
40541;SDS011;49288;52.194;5.676;2024-03-25T10:46:48;19.63;;;6.17;;
40541;SDS011;49288;52.194;5.676;2024-03-25T10:51:53;12.93;;;3.35;;
40541;SDS011;49288;52.194;5.676;2024-03-25T10:56:56;19.45;;;4.90;;
40541;SDS011;49288;52.194;5.676;2024-03-25T11:02:00;21.27;;;5.03;;
40541;SDS011;49288;52.194;5.676;2024-03-25T11:07:08;19.20;;;6.55;;
40541;SDS011;49288;52.194;5.676;2024-03-25T11:12:14;27.02;;;6.15;;
40541;SDS011;49288;52.194;5.676;2024-03-25T11:17:16;20.77;;;5.00;;
40541;SDS011;49288;52.194;5.676;2024-03-25T11:22:23;18.90;;;4.97;;
40541;SDS011;49288;52.194;5.676;2024-03-25T11:27:26;13.63;;;4.25;;
40541;SDS011;49288;52.194;5.676;2024-03-25T11:32:29;19.17;;;5.05;;
40541;SDS011;49288;52.194;5.676;2024-03-25T11:37:31;13.40;;;4.57;;
40541;SDS011;49288;52.194;5.676;2024-03-25T11:42:35;15.63;;;4.47;;
40541;SDS011;49288;52.194;5.676;2024-03-25T11:47:37;15.77;;;4.90;;
40541;SDS011;49288;52.194;5.676;2024-03-25T11:52:40;12.82;;;4.40;;
40541;SDS011;49288;52.194;5.676;2024-03-25T11:57:43;8.82;;;3.67;;
40541;SDS011;49288;52.194;5.676;2024-03-25T12:02:45;24.33;;;4.75;;
40541;SDS011;49288;52.194;5.676;2024-03-25T12:07:51;14.88;;;3.92;;
40541;SDS011;49288;52.194;5.676;2024-03-25T12:12:53;17.48;;;3.85;;
40541;SDS011;49288;52.194;5.676;2024-03-25T12:17:56;18.10;;;3.73;;
40541;SDS011;49288;52.194;5.676;2024-03-25T12:22:58;12.13;;;3.37;;
40541;SDS011;49288;52.194;5.676;2024-03-25T12:28:07;11.95;;;4.57;;
40541;SDS011;49288;52.194;5.676;2024-03-25T12:33:11;11.02;;;4.15;;
40541;SDS011;49288;52.194;5.676;2024-03-25T12:43:27;20.52;;;4.63;;
40541;SDS011;49288;52.194;5.676;2024-03-25T12:48:29;16.38;;;4.20;;
40541;SDS011;49288;52.194;5.676;2024-03-25T12:53:31;16.52;;;4.88;;
40541;SDS011;49288;52.194;5.676;2024-03-25T12:58:33;13.80;;;5.30;;
40541;SDS011;49288;52.194;5.676;2024-03-25T13:03:36;11.98;;;5.03;;
40541;SDS011;49288;52.194;5.676;2024-03-25T13:08:39;13.85;;;4.82;;
40541;SDS011;49288;52.194;5.676;2024-03-25T13:18:43;14.68;;;5.93;;
40541;SDS011;49288;52.194;5.676;2024-03-25T13:24:03;17.98;;;5.85;;
40541;SDS011;49288;52.194;5.676;2024-03-25T13:29:05;11.80;;;4.40;;
40541;SDS011;49288;52.194;5.676;2024-03-25T13:34:08;12.60;;;5.40;;
40541;SDS011;49288;52.194;5.676;2024-03-25T13:39:10;11.90;;;5.68;;
40541;SDS011;49288;52.194;5.676;2024-03-25T13:44:13;15.73;;;6.57;;
40541;SDS011;49288;52.194;5.676;2024-03-25T13:49:16;15.25;;;6.50;;
40541;SDS011;49288;52.194;5.676;2024-03-25T13:54:20;13.27;;;5.90;;
40541;SDS011;49288;52.194;5.676;2024-03-25T13:59:22;10.88;;;5.88;;
40541;SDS011;49288;52.194;5.676;2024-03-25T14:04:24;13.70;;;5.70;;
40541;SDS011;49288;52.194;5.676;2024-03-25T14:09:26;10.40;;;5.45;;
40541;SDS011;49288;52.194;5.676;2024-03-25T14:14:29;16.20;;;5.28;;
40541;SDS011;49288;52.194;5.676;2024-03-25T14:19:31;14.20;;;5.55;;
40541;SDS011;49288;52.194;5.676;2024-03-25T14:24:33;12.50;;;5.40;;
40541;SDS011;49288;52.194;5.676;2024-03-25T14:29:36;14.00;;;5.20;;
40541;SDS011;49288;52.194;5.676;2024-03-25T14:34:38;11.65;;;5.70;;
40541;SDS011;49288;52.194;5.676;2024-03-25T14:39:41;12.95;;;5.00;;
40541;SDS011;49288;52.194;5.676;2024-03-25T14:44:43;14.90;;;5.45;;
40541;SDS011;49288;52.194;5.676;2024-03-25T14:49:46;15.93;;;5.38;;
40541;SDS011;49288;52.194;5.676;2024-03-25T14:54:49;12.70;;;5.63;;
40541;SDS011;49288;52.194;5.676;2024-03-25T14:59:52;13.07;;;6.18;;
40541;SDS011;49288;52.194;5.676;2024-03-25T15:04:55;8.52;;;4.63;;
40541;SDS011;49288;52.194;5.676;2024-03-25T15:09:58;8.73;;;4.33;;
40541;SDS011;49288;52.194;5.676;2024-03-25T15:15:02;10.48;;;4.82;;
40541;SDS011;49288;52.194;5.676;2024-03-25T15:20:07;13.65;;;5.60;;
40541;SDS011;49288;52.194;5.676;2024-03-25T15:25:10;16.05;;;4.72;;
40541;SDS011;49288;52.194;5.676;2024-03-25T15:30:14;11.95;;;4.30;;
40541;SDS011;49288;52.194;5.676;2024-03-25T15:35:15;12.05;;;4.90;;
40541;SDS011;49288;52.194;5.676;2024-03-25T15:40:17;8.48;;;4.15;;
40541;SDS011;49288;52.194;5.676;2024-03-25T15:45:20;11.18;;;4.47;;
40541;SDS011;49288;52.194;5.676;2024-03-25T15:50:21;12.80;;;4.25;;
40541;SDS011;49288;52.194;5.676;2024-03-25T15:55:25;10.93;;;4.90;;
40541;SDS011;49288;52.194;5.676;2024-03-25T16:00:27;12.55;;;5.32;;
40541;SDS011;49288;52.194;5.676;2024-03-25T16:05:29;7.40;;;4.28;;
40541;SDS011;49288;52.194;5.676;2024-03-25T16:10:34;8.77;;;3.80;;
40541;SDS011;49288;52.194;5.676;2024-03-25T16:15:37;8.70;;;4.20;;
40541;SDS011;49288;52.194;5.676;2024-03-25T16:20:38;9.93;;;4.47;;
40541;SDS011;49288;52.194;5.676;2024-03-25T16:25:41;10.32;;;4.25;;
40541;SDS011;49288;52.194;5.676;2024-03-25T16:30:42;8.90;;;4.10;;
40541;SDS011;49288;52.194;5.676;2024-03-25T16:35:44;8.00;;;3.97;;
40541;SDS011;49288;52.194;5.676;2024-03-25T16:40:47;9.45;;;3.63;;
40541;SDS011;49288;52.194;5.676;2024-03-25T16:45:50;10.73;;;4.35;;
40541;SDS011;49288;52.194;5.676;2024-03-25T16:50:53;10.95;;;4.38;;
40541;SDS011;49288;52.194;5.676;2024-03-25T16:55:54;13.20;;;4.90;;
40541;SDS011;49288;52.194;5.676;2024-03-25T17:01:00;11.50;;;4.82;;
40541;SDS011;49288;52.194;5.676;2024-03-25T17:06:02;15.50;;;5.78;;
40541;SDS011;49288;52.194;5.676;2024-03-25T17:11:05;10.95;;;5.18;;
40541;SDS011;49288;52.194;5.676;2024-03-25T17:16:07;15.52;;;4.63;;
40541;SDS011;49288;52.194;5.676;2024-03-25T17:21:11;18.23;;;5.47;;
40541;SDS011;49288;52.194;5.676;2024-03-25T17:26:14;9.97;;;3.97;;
40541;SDS011;49288;52.194;5.676;2024-03-25T17:31:18;9.07;;;4.47;;
40541;SDS011;49288;52.194;5.676;2024-03-25T17:36:21;13.93;;;5.07;;
40541;SDS011;49288;52.194;5.676;2024-03-25T17:41:23;11.43;;;4.57;;
40541;SDS011;49288;52.194;5.676;2024-03-25T17:46:26;14.45;;;3.88;;
40541;SDS011;49288;52.194;5.676;2024-03-25T17:51:28;11.80;;;3.83;;
40541;SDS011;49288;52.194;5.676;2024-03-25T17:56:32;11.05;;;4.53;;
40541;SDS011;49288;52.194;5.676;2024-03-25T18:01:35;11.10;;;4.25;;
40541;SDS011;49288;52.194;5.676;2024-03-25T18:06:59;14.10;;;4.20;;
40541;SDS011;49288;52.194;5.676;2024-03-25T18:12:03;8.15;;;3.80;;
40541;SDS011;49288;52.194;5.676;2024-03-25T18:17:07;11.35;;;4.00;;
40541;SDS011;49288;52.194;5.676;2024-03-25T18:22:09;8.00;;;3.75;;
40541;SDS011;49288;52.194;5.676;2024-03-25T18:27:11;7.65;;;4.00;;
40541;SDS011;49288;52.194;5.676;2024-03-25T18:32:14;10.77;;;3.95;;
40541;SDS011;49288;52.194;5.676;2024-03-25T18:37:17;8.85;;;3.97;;
40541;SDS011;49288;52.194;5.676;2024-03-25T18:42:20;7.43;;;3.97;;
40541;SDS011;49288;52.194;5.676;2024-03-25T18:47:21;11.80;;;4.35;;
40541;SDS011;49288;52.194;5.676;2024-03-25T18:52:25;8.85;;;3.88;;
40541;SDS011;49288;52.194;5.676;2024-03-25T18:57:27;12.57;;;4.10;;
40541;SDS011;49288;52.194;5.676;2024-03-25T19:02:28;12.15;;;4.40;;
40541;SDS011;49288;52.194;5.676;2024-03-25T19:07:30;7.90;;;4.13;;
40541;SDS011;49288;52.194;5.676;2024-03-25T19:12:33;13.88;;;4.38;;
40541;SDS011;49288;52.194;5.676;2024-03-25T19:17:35;9.02;;;4.18;;
40541;SDS011;49288;52.194;5.676;2024-03-25T19:22:39;10.43;;;3.97;;
40541;SDS011;49288;52.194;5.676;2024-03-25T19:27:41;10.60;;;4.60;;
40541;SDS011;49288;52.194;5.676;2024-03-25T19:32:43;9.32;;;4.00;;
40541;SDS011;49288;52.194;5.676;2024-03-25T19:37:45;10.15;;;5.38;;
40541;SDS011;49288;52.194;5.676;2024-03-25T19:42:48;14.05;;;6.35;;
40541;SDS011;49288;52.194;5.676;2024-03-25T19:47:50;12.80;;;4.97;;
40541;SDS011;49288;52.194;5.676;2024-03-25T19:52:52;16.85;;;5.22;;
40541;SDS011;49288;52.194;5.676;2024-03-25T19:57:54;9.45;;;4.45;;
40541;SDS011;49288;52.194;5.676;2024-03-25T20:02:55;13.73;;;4.95;;
40541;SDS011;49288;52.194;5.676;2024-03-25T20:07:57;19.40;;;5.55;;
40541;SDS011;49288;52.194;5.676;2024-03-25T20:12:59;12.07;;;5.05;;
40541;SDS011;49288;52.194;5.676;2024-03-25T20:18:19;15.80;;;5.68;;
40541;SDS011;49288;52.194;5.676;2024-03-25T20:23:22;9.77;;;5.35;;
40541;SDS011;49288;52.194;5.676;2024-03-25T20:28:24;18.20;;;6.32;;
40541;SDS011;49288;52.194;5.676;2024-03-25T20:33:28;11.32;;;5.47;;
40541;SDS011;49288;52.194;5.676;2024-03-25T20:38:32;11.90;;;5.55;;
40541;SDS011;49288;52.194;5.676;2024-03-25T20:43:36;11.97;;;4.80;;
40541;SDS011;49288;52.194;5.676;2024-03-25T20:48:38;11.13;;;5.38;;
40541;SDS011;49288;52.194;5.676;2024-03-25T20:53:41;14.52;;;5.25;;
40541;SDS011;49288;52.194;5.676;2024-03-25T20:58:43;12.32;;;5.00;;
40541;SDS011;49288;52.194;5.676;2024-03-25T21:03:44;20.90;;;6.30;;
40541;SDS011;49288;52.194;5.676;2024-03-25T21:08:47;10.00;;;5.55;;
40541;SDS011;49288;52.194;5.676;2024-03-25T21:13:50;14.13;;;5.55;;
40541;SDS011;49288;52.194;5.676;2024-03-25T21:18:54;18.98;;;7.00;;
40541;SDS011;49288;52.194;5.676;2024-03-25T21:23:56;18.80;;;6.65;;
40541;SDS011;49288;52.194;5.676;2024-03-25T21:28:58;15.85;;;5.75;;
40541;SDS011;49288;52.194;5.676;2024-03-25T21:34:00;17.75;;;6.10;;
40541;SDS011;49288;52.194;5.676;2024-03-25T21:39:02;14.52;;;6.55;;
40541;SDS011;49288;52.194;5.676;2024-03-25T21:44:05;14.23;;;6.75;;
40541;SDS011;49288;52.194;5.676;2024-03-25T21:49:07;14.30;;;6.28;;
40541;SDS011;49288;52.194;5.676;2024-03-25T21:54:09;19.30;;;6.40;;
40541;SDS011;49288;52.194;5.676;2024-03-25T21:59:10;11.45;;;6.35;;
40541;SDS011;49288;52.194;5.676;2024-03-25T22:04:12;20.13;;;7.57;;
40541;SDS011;49288;52.194;5.676;2024-03-25T22:09:15;17.20;;;6.15;;
40541;SDS011;49288;52.194;5.676;2024-03-25T22:14:17;13.10;;;5.65;;
40541;SDS011;49288;52.194;5.676;2024-03-25T22:19:21;14.27;;;6.60;;
40541;SDS011;49288;52.194;5.676;2024-03-25T22:24:23;18.40;;;6.43;;
40541;SDS011;49288;52.194;5.676;2024-03-25T22:29:25;21.95;;;6.70;;
40541;SDS011;49288;52.194;5.676;2024-03-25T22:34:26;18.50;;;6.38;;
40541;SDS011;49288;52.194;5.676;2024-03-25T22:44:37;14.13;;;6.80;;
40541;SDS011;49288;52.194;5.676;2024-03-25T22:49:39;20.08;;;7.35;;
40541;SDS011;49288;52.194;5.676;2024-03-25T22:54:41;23.25;;;6.85;;
40541;SDS011;49288;52.194;5.676;2024-03-25T22:59:43;17.17;;;6.80;;
40541;SDS011;49288;52.194;5.676;2024-03-25T23:04:45;17.35;;;6.55;;
40541;SDS011;49288;52.194;5.676;2024-03-25T23:09:47;16.27;;;6.53;;
40541;SDS011;49288;52.194;5.676;2024-03-25T23:15:07;17.75;;;6.82;;
40541;SDS011;49288;52.194;5.676;2024-03-25T23:20:09;21.35;;;6.75;;
40541;SDS011;49288;52.194;5.676;2024-03-25T23:25:11;20.17;;;7.05;;
40541;SDS011;49288;52.194;5.676;2024-03-25T23:30:13;19.08;;;7.07;;
40541;SDS011;49288;52.194;5.676;2024-03-25T23:35:20;17.85;;;7.22;;
40541;SDS011;49288;52.194;5.676;2024-03-25T23:40:23;14.27;;;6.05;;
40541;SDS011;49288;52.194;5.676;2024-03-25T23:45:25;12.57;;;6.07;;
40541;SDS011;49288;52.194;5.676;2024-03-25T23:50:27;22.27;;;6.65;;
40541;SDS011;49288;52.194;5.676;2024-03-25T23:55:29;17.42;;;6.28;;
